Persepolis, Iran
Current Conditions -  °F | °C
As of 2:30 AM on Sunday 26 Oct 2014 (Local Time) from OISS Reporting Station
Clear Clear  
Wind Chill: 54°   Ceiling: Unl
Heat Index: 54°   Visibility: 6mi
Dew Point: 32°   Wind: 5mph
Humidity: 44%   Direction: 330°NNW
Pressure: 30.09"   Gusts: NA
Location:  29.93°N, 52.9°E
Report Text: OISS 252330Z 33004KT CAVOK 12/M00 Q1019 A3010
Loading
Personal Weather Stations






























Interactive Weather Map
Tropical Storm Tracking
New forecast layout! Learn more

10-Day Weather Forecast

Advertisements
Track Severe Weather on mobile